createdAt,value
2019-04-14T00:01:34.776Z,32.95
2019-04-14T00:04:11.451Z,33.28
2019-04-14T00:06:41.955Z,30.40
2019-04-14T00:09:14.742Z,29.07
2019-04-14T00:11:45.952Z,26.17
2019-04-14T00:14:16.414Z,31.27
2019-04-14T00:16:46.738Z,31.62
2019-04-14T00:19:17.344Z,27.90
2019-04-14T00:21:47.648Z,27.22
2019-04-14T00:24:18.419Z,26.62
2019-04-14T00:26:49.419Z,28.90
2019-04-14T00:29:19.533Z,26.02
2019-04-14T00:31:51.091Z,27.95
2019-04-14T00:34:22.637Z,33.70
2019-04-14T00:36:56.977Z,29.95
2019-04-14T00:39:31.592Z,28.92
2019-04-14T00:42:04.664Z,37.00
2019-04-14T00:44:39.201Z,35.25
2019-04-14T00:47:20.028Z,38.00
2019-04-14T00:49:50.895Z,36.08
2019-04-14T00:52:21.279Z,36.08
2019-04-14T00:54:52.126Z,33.98
2019-04-14T00:57:22.434Z,32.88
2019-04-14T00:59:53.073Z,34.90
2019-04-14T01:02:23.272Z,32.05
2019-04-14T01:04:53.477Z,27.98
2019-04-14T01:07:26.108Z,25.80
2019-04-14T01:12:25.726Z,28.20
2019-04-14T01:14:55.986Z,25.55
2019-04-14T01:17:26.946Z,26.37
2019-04-14T01:19:57.005Z,27.75
2019-04-14T01:22:27.167Z,25.30
2019-04-14T01:24:57.571Z,27.13
2019-04-14T01:27:27.774Z,24.30
2019-04-14T01:29:58.170Z,26.27
2019-04-14T01:32:28.311Z,26.35
2019-04-14T01:34:58.900Z,23.25
2019-04-14T01:37:31.177Z,26.15
2019-04-14T01:40:01.145Z,22.82
2019-04-14T01:42:31.114Z,22.95
2019-04-14T01:45:01.425Z,24.67
2019-04-14T01:47:31.434Z,24.20
2019-04-14T01:50:01.792Z,23.98
2019-04-14T01:52:43.611Z,21.55
2019-04-14T01:55:22.266Z,23.27
2019-04-14T01:58:03.321Z,21.90
2019-04-14T02:00:51.320Z,20.77
2019-04-14T02:03:21.736Z,21.75
2019-04-14T02:05:51.795Z,28.80
2019-04-14T02:08:22.042Z,26.05
2019-04-14T02:10:54.319Z,29.55
2019-04-14T02:13:24.734Z,23.25
2019-04-14T02:15:54.998Z,25.75
2019-04-14T02:18:25.256Z,22.82
2019-04-14T02:20:55.757Z,25.02
2019-04-14T02:23:25.823Z,24.10
2019-04-14T02:25:56.045Z,23.07
2019-04-14T02:28:26.460Z,21.62
2019-04-14T02:31:10.282Z,21.17
2019-04-14T02:33:54.056Z,24.25
2019-04-14T02:39:15.564Z,21.93
2019-04-14T02:41:35.720Z,20.10
2019-04-14T02:44:04.619Z,21.35
2019-04-14T02:46:38.494Z,25.60
2019-04-14T02:51:49.659Z,21.23
2019-04-14T02:54:05.043Z,22.67
2019-04-14T02:56:36.298Z,23.42
2019-04-14T02:59:11.728Z,20.65
2019-04-14T03:01:54.770Z,20.23
2019-04-14T03:04:13.740Z,20.62
2019-04-14T03:06:50.413Z,21.68
2019-04-14T03:11:46.153Z,19.25
2019-04-14T03:14:25.441Z,21.33
2019-04-14T03:17:16.210Z,28.55
2019-04-14T03:19:44.497Z,22.00
2019-04-14T03:22:25.531Z,24.98
2019-04-14T03:24:34.109Z,24.92
2019-04-14T03:27:15.207Z,25.12
2019-04-14T03:29:54.732Z,24.92
2019-04-14T03:32:49.614Z,24.82
2019-04-14T03:37:45.246Z,23.00
2019-04-14T03:39:51.918Z,22.85
2019-04-14T03:42:28.885Z,24.40
2019-04-14T03:44:56.385Z,24.30
2019-04-14T03:47:23.791Z,26.57
2019-04-14T03:50:13.686Z,24.92
2019-04-14T03:52:37.852Z,24.60
2019-04-14T03:54:56.697Z,27.82
2019-04-14T03:57:10.434Z,24.02
2019-04-14T03:59:41.275Z,24.43
2019-04-14T04:02:11.820Z,25.02
2019-04-14T04:04:42.327Z,25.32
2019-04-14T04:07:12.610Z,24.23
2019-04-14T04:09:45.349Z,23.98
2019-04-14T04:12:16.044Z,30.45
2019-04-14T04:14:46.397Z,24.98
2019-04-14T04:17:21.211Z,24.37
2019-04-14T04:19:53.430Z,24.35
2019-04-14T04:22:41.386Z,24.40
2019-04-14T04:25:13.874Z,23.20
2019-04-14T04:27:52.554Z,22.58
2019-04-14T04:30:40.292Z,25.57
2019-04-14T04:33:21.794Z,23.65
2019-04-14T04:35:56.520Z,27.00
2019-04-14T04:38:34.037Z,21.82
2019-04-14T04:41:03.865Z,26.07
2019-04-14T04:43:34.098Z,22.70
2019-04-14T04:46:04.859Z,21.52
2019-04-14T04:48:34.989Z,26.25
2019-04-14T04:51:05.068Z,23.98
2019-04-14T04:53:35.395Z,24.72
2019-04-14T04:56:05.780Z,24.10
2019-04-14T04:58:37.063Z,27.45
2019-04-14T05:01:07.722Z,24.30
2019-04-14T05:03:38.536Z,26.65
2019-04-14T05:06:11.269Z,22.80
2019-04-14T05:08:50.145Z,23.83
2019-04-14T05:11:31.657Z,24.60
2019-04-14T05:14:04.295Z,22.05
2019-04-14T05:19:14.014Z,25.43
2019-04-14T05:21:36.666Z,27.60
2019-04-14T05:24:07.074Z,24.80
2019-04-14T05:26:37.366Z,24.12
2019-04-14T05:29:07.790Z,24.72
2019-04-14T05:31:38.782Z,28.67
2019-04-14T05:34:08.719Z,23.12
2019-04-14T05:36:38.878Z,25.10
2019-04-14T05:39:08.981Z,27.00
2019-04-14T05:41:40.795Z,24.90
2019-04-14T05:44:10.329Z,24.07
2019-04-14T05:46:40.373Z,24.92
2019-04-14T05:49:12.084Z,23.50
2019-04-14T05:51:41.996Z,20.65
2019-04-14T05:54:31.775Z,26.23
2019-04-14T05:57:02.350Z,21.65
2019-04-14T05:59:32.919Z,20.08
2019-04-14T06:02:02.778Z,26.87
2019-04-14T06:04:33.186Z,23.90
2019-04-14T06:07:03.029Z,23.83
2019-04-14T06:09:32.846Z,19.60
2019-04-14T06:12:02.654Z,19.17
2019-04-14T06:14:32.538Z,22.85
2019-04-14T06:17:02.350Z,20.15
2019-04-14T06:19:38.070Z,26.00
2019-04-14T06:22:03.722Z,23.75
2019-04-14T06:24:33.605Z,23.10
2019-04-14T06:27:03.502Z,22.77
2019-04-14T06:29:33.301Z,22.58
2019-04-14T06:32:14.091Z,22.98
2019-04-14T06:35:01.718Z,23.55
2019-04-14T06:37:36.382Z,22.15
2019-04-14T06:40:08.354Z,23.60
2019-04-14T06:42:38.238Z,21.82
2019-04-14T06:45:08.049Z,24.25
2019-04-14T06:47:38.207Z,20.68
2019-04-14T06:50:08.027Z,22.37
2019-04-14T06:52:37.910Z,24.50
2019-04-14T06:55:07.723Z,26.30
2019-04-14T06:57:37.551Z,23.92
2019-04-14T07:00:07.371Z,25.57
2019-04-14T07:02:37.185Z,23.22
2019-04-14T07:05:07.100Z,25.02
2019-04-14T07:07:36.913Z,26.62
2019-04-14T07:10:07.794Z,24.77
2019-04-14T07:12:37.681Z,25.27
2019-04-14T07:15:07.650Z,28.20
2019-04-14T07:17:37.531Z,27.05
2019-04-14T07:20:07.482Z,25.80
2019-04-14T07:22:37.701Z,28.90
2019-04-14T07:25:07.547Z,25.77
2019-04-14T07:27:37.433Z,26.70
2019-04-14T07:30:25.234Z,26.45
2019-04-14T07:32:57.156Z,26.23
2019-04-14T07:35:34.644Z,24.27
2019-04-14T07:38:21.462Z,26.70
2019-04-14T07:41:08.074Z,27.27
2019-04-14T07:43:39.522Z,23.92
2019-04-14T07:46:27.517Z,24.67
2019-04-14T07:49:01.843Z,25.85
2019-04-14T07:51:39.438Z,25.27
2019-04-14T07:54:16.732Z,22.62
2019-04-14T07:57:03.498Z,21.57
2019-04-14T07:59:38.153Z,23.47
2019-04-14T08:02:24.769Z,22.02
2019-04-14T08:04:58.986Z,23.32
2019-04-14T08:07:29.002Z,25.82
2019-04-14T08:10:00.072Z,23.00
2019-04-14T08:12:31.025Z,20.90
2019-04-14T08:15:00.843Z,21.02
2019-04-14T08:17:30.651Z,23.57
2019-04-14T08:20:00.652Z,20.77
2019-04-14T08:22:30.474Z,23.32
2019-04-14T08:25:00.285Z,22.15
2019-04-14T08:27:30.161Z,21.82
2019-04-14T08:30:00.404Z,21.90
2019-04-14T08:32:31.428Z,21.87
2019-04-14T08:37:41.629Z,19.15
2019-04-14T08:40:11.615Z,18.85
2019-04-14T08:42:58.555Z,20.25
2019-04-14T08:45:32.541Z,20.77
2019-04-14T08:48:06.857Z,18.73
2019-04-14T08:50:39.578Z,19.10
2019-04-14T08:53:23.403Z,16.32
2019-04-14T08:56:11.375Z,16.97
2019-04-14T08:58:45.830Z,17.75
2019-04-14T09:01:26.402Z,18.57
2019-04-14T09:04:00.463Z,16.67
2019-04-14T09:06:40.925Z,17.70
2019-04-14T09:09:12.382Z,16.97
2019-04-14T09:11:46.803Z,16.15
2019-04-14T09:14:16.890Z,17.25
2019-04-14T09:16:47.191Z,18.48
2019-04-14T09:19:17.009Z,17.85
2019-04-14T09:21:46.920Z,17.12
2019-04-14T09:24:16.835Z,15.88
2019-04-14T09:26:46.747Z,17.17
2019-04-14T09:29:16.661Z,15.55
2019-04-14T09:31:46.810Z,15.70
2019-04-14T09:34:16.682Z,15.88
2019-04-14T09:36:46.494Z,15.48
2019-04-14T09:39:16.313Z,16.77
2019-04-14T09:41:46.122Z,18.92
2019-04-14T09:44:16.050Z,18.00
2019-04-14T09:46:46.066Z,16.30
2019-04-14T09:49:15.977Z,14.53
2019-04-14T09:51:45.804Z,15.23
2019-04-14T09:54:15.708Z,17.45
2019-04-14T09:56:45.960Z,15.88
2019-04-14T09:59:16.077Z,17.50
2019-04-14T10:01:46.103Z,18.60
2019-04-14T10:04:17.289Z,18.02
2019-04-14T10:06:47.175Z,18.42
2019-04-14T10:09:17.481Z,20.17
2019-04-14T10:11:49.000Z,18.48
2019-04-14T10:14:18.920Z,16.10
2019-04-14T10:16:48.782Z,16.95
2019-04-14T10:19:18.581Z,17.42
2019-04-14T10:21:48.457Z,17.48
2019-04-14T10:24:18.275Z,15.75
2019-04-14T10:26:48.158Z,19.10
2019-04-14T10:29:17.970Z,18.50
2019-04-14T10:31:48.250Z,17.85
2019-04-14T10:34:18.061Z,15.68
2019-04-14T10:36:47.884Z,15.78
2019-04-14T10:39:17.761Z,16.15
2019-04-14T10:41:49.178Z,15.98
2019-04-14T10:44:18.986Z,16.70
2019-04-14T10:46:48.871Z,13.38
2019-04-14T10:49:19.059Z,14.20
2019-04-14T10:51:50.025Z,16.70
2019-04-14T10:54:20.846Z,13.90
2019-04-14T10:56:50.668Z,14.43
2019-04-14T10:59:20.559Z,13.43
2019-04-14T11:01:50.374Z,13.75
2019-04-14T11:04:20.258Z,13.88
2019-04-14T11:07:00.853Z,15.78
2019-04-14T11:09:31.175Z,13.68
2019-04-14T11:12:00.990Z,11.90
2019-04-14T11:14:30.808Z,12.35
2019-04-14T11:17:00.718Z,12.85
2019-04-14T11:19:30.626Z,13.08
2019-04-14T11:22:00.541Z,10.95
2019-04-14T11:24:30.770Z,12.70
2019-04-14T11:27:00.682Z,12.63
2019-04-14T11:29:30.595Z,10.88
2019-04-14T11:32:18.297Z,11.50
2019-04-14T11:34:55.819Z,11.38
2019-04-14T11:37:43.677Z,10.98
2019-04-14T11:40:15.208Z,8.95
2019-04-14T11:42:52.221Z,9.85
2019-04-14T11:45:17.280Z,9.60
2019-04-14T11:47:47.078Z,11.73
2019-04-14T11:50:16.946Z,10.23
2019-04-14T11:52:46.826Z,9.75
2019-04-14T11:55:18.245Z,8.28
2019-04-14T11:57:48.102Z,9.58
2019-04-14T12:00:35.779Z,8.68
2019-04-14T12:03:13.361Z,9.95
2019-04-14T12:05:53.982Z,8.10
2019-04-14T12:08:32.013Z,13.15
2019-04-14T12:11:02.746Z,9.55
2019-04-14T12:13:32.542Z,8.50
2019-04-14T12:16:02.414Z,8.50
2019-04-14T12:18:32.293Z,8.70
2019-04-14T12:21:02.085Z,9.28
2019-04-14T12:23:32.030Z,8.43
2019-04-14T12:26:05.502Z,7.78
2019-04-14T12:28:33.907Z,8.78
2019-04-14T12:31:04.157Z,7.50
2019-04-14T12:33:33.961Z,9.38
2019-04-14T12:36:05.785Z,9.43
2019-04-14T12:38:35.660Z,7.63
2019-04-14T12:41:08.144Z,8.85
2019-04-14T12:43:39.628Z,8.60
2019-04-14T12:46:22.809Z,10.40
2019-04-14T12:48:57.383Z,10.68
2019-04-14T12:51:28.833Z,10.08
2019-04-14T12:53:58.628Z,9.40
2019-04-14T12:56:29.843Z,10.98
2019-04-14T12:59:01.254Z,9.45
2019-04-14T13:01:52.016Z,10.50
2019-04-14T13:04:21.879Z,10.05
2019-04-14T13:06:51.846Z,9.70
2019-04-14T13:09:22.616Z,9.95
2019-04-14T13:11:52.431Z,11.78
2019-04-14T13:14:22.246Z,10.40
2019-04-14T13:16:52.117Z,10.53
2019-04-14T13:19:22.013Z,10.10
2019-04-14T13:21:51.804Z,9.75
2019-04-14T13:24:21.759Z,10.55
2019-04-14T13:26:51.574Z,9.48
2019-04-14T13:29:21.370Z,9.30
2019-04-14T13:31:52.320Z,9.70
2019-04-14T13:34:22.242Z,9.40
2019-04-14T13:36:52.052Z,8.55
2019-04-14T13:39:21.849Z,8.90
2019-04-14T13:41:51.653Z,9.18
2019-04-14T13:44:21.521Z,9.45
2019-04-14T13:46:51.525Z,9.35
2019-04-14T13:49:21.374Z,8.43
2019-04-14T13:51:51.193Z,7.28
2019-04-14T13:54:22.203Z,7.50
2019-04-14T13:56:52.009Z,7.53
2019-04-14T13:59:22.125Z,7.45
2019-04-14T14:01:52.001Z,7.03
2019-04-14T14:04:21.825Z,7.12
2019-04-14T14:06:51.715Z,7.72
2019-04-14T14:09:21.563Z,7.67
2019-04-14T14:11:55.856Z,8.48
2019-04-14T14:14:36.543Z,7.00
2019-04-14T14:17:20.171Z,6.55
2019-04-14T14:19:51.602Z,5.80
2019-04-14T14:22:23.073Z,7.08
2019-04-14T14:25:03.294Z,6.17
2019-04-14T14:27:33.080Z,5.78
2019-04-14T14:30:04.737Z,5.90
2019-04-14T14:32:36.050Z,4.87
2019-04-14T14:35:06.373Z,5.83
2019-04-14T14:37:37.258Z,5.08
2019-04-14T14:40:07.290Z,4.95
2019-04-14T14:42:37.148Z,5.33
2019-04-14T14:45:08.585Z,4.90
2019-04-14T14:47:38.453Z,4.97
2019-04-14T14:50:09.899Z,4.87
2019-04-14T14:52:41.169Z,4.22
2019-04-14T14:55:11.048Z,5.62
2019-04-14T14:57:40.847Z,5.25
2019-04-14T15:00:14.877Z,5.60
2019-04-14T15:02:44.678Z,4.80
2019-04-14T15:05:14.910Z,4.87
2019-04-14T15:07:44.675Z,5.60
2019-04-14T15:10:14.474Z,5.45
2019-04-14T15:12:44.415Z,4.95
2019-04-14T15:15:14.506Z,5.25
2019-04-14T15:17:44.314Z,5.15
2019-04-14T15:20:14.120Z,5.30
2019-04-14T15:22:43.924Z,5.33
2019-04-14T15:25:13.732Z,5.22
2019-04-14T15:27:43.607Z,4.90
2019-04-14T15:30:19.022Z,4.53
2019-04-14T15:32:48.889Z,5.95
2019-04-14T15:35:19.101Z,5.25
2019-04-14T15:37:48.898Z,5.35
2019-04-14T15:40:18.714Z,4.92
2019-04-14T15:42:48.578Z,4.85
2019-04-14T15:45:18.463Z,5.17
2019-04-14T15:47:48.325Z,5.65
2019-04-14T15:50:18.206Z,4.35
2019-04-14T15:52:48.228Z,3.95
2019-04-14T15:55:19.160Z,4.20
2019-04-14T15:57:59.987Z,3.85
2019-04-14T16:00:47.940Z,3.87
2019-04-14T16:03:19.382Z,4.42
2019-04-14T16:06:03.046Z,4.25
2019-04-14T16:08:43.910Z,4.12
2019-04-14T16:11:31.546Z,4.05
2019-04-14T16:14:08.862Z,4.28
2019-04-14T16:16:46.493Z,4.78
2019-04-14T16:19:20.745Z,3.33
2019-04-14T16:21:50.835Z,3.40
2019-04-14T16:24:20.748Z,3.67
2019-04-14T16:26:52.228Z,3.33
2019-04-14T16:29:33.340Z,3.27
2019-04-14T16:32:07.765Z,3.52
2019-04-14T16:34:39.269Z,3.45
2019-04-14T16:37:09.213Z,3.37
2019-04-14T16:39:39.078Z,3.60
2019-04-14T16:42:09.910Z,5.15
2019-04-14T16:44:39.826Z,3.12
2019-04-14T16:47:09.760Z,3.67
2019-04-14T16:49:39.689Z,3.50
2019-04-14T16:52:11.210Z,3.80
2019-04-14T16:55:00.740Z,3.70
2019-04-14T16:57:52.025Z,4.15
2019-04-14T17:00:26.491Z,4.65
2019-04-14T17:02:56.666Z,4.30
2019-04-14T17:05:26.787Z,4.12
2019-04-14T17:07:56.679Z,4.85
2019-04-14T17:10:26.590Z,5.67
2019-04-14T17:12:56.554Z,4.10
2019-04-14T17:15:40.673Z,4.10
2019-04-14T17:18:28.510Z,3.80
2019-04-14T17:21:05.971Z,3.98
2019-04-14T17:23:53.817Z,3.65
2019-04-14T17:26:41.787Z,3.98
2019-04-14T17:29:25.228Z,3.87
2019-04-14T17:31:59.461Z,4.12
2019-04-14T17:34:30.989Z,5.08
2019-04-14T17:37:05.579Z,5.40
2019-04-14T17:39:37.081Z,6.00
2019-04-14T17:42:20.371Z,6.78
2019-04-14T17:44:51.806Z,5.37
2019-04-14T17:47:26.278Z,4.92
2019-04-14T17:50:14.246Z,5.75
2019-04-14T17:52:54.637Z,6.45
2019-04-14T17:55:29.234Z,5.72
2019-04-14T17:58:00.869Z,6.35
2019-04-14T18:00:32.804Z,5.83
2019-04-14T18:03:04.233Z,6.87
2019-04-14T18:05:35.751Z,8.85
2019-04-14T18:08:13.167Z,6.40
2019-04-14T18:10:44.606Z,7.20
2019-04-14T18:13:16.052Z,6.90
2019-04-14T18:15:47.780Z,5.72
2019-04-14T18:18:19.378Z,7.70
2019-04-14T18:20:50.825Z,9.23
2019-04-14T18:23:21.087Z,15.75
2019-04-14T18:25:50.862Z,18.15
2019-04-14T18:28:25.216Z,18.02
2019-04-14T18:31:00.835Z,19.75
2019-04-14T18:33:35.458Z,18.92
2019-04-14T18:36:07.011Z,22.15
2019-04-14T18:38:55.186Z,22.22
2019-04-14T18:41:32.654Z,20.52
2019-04-14T18:44:10.138Z,20.02
2019-04-14T18:46:41.957Z,20.12
2019-04-14T18:49:25.462Z,19.10
2019-04-14T18:51:56.917Z,21.05
2019-04-14T18:54:37.510Z,20.05
2019-04-14T18:57:13.585Z,20.17
2019-04-14T18:59:48.159Z,22.02
2019-04-14T19:02:18.034Z,20.40
2019-04-14T19:04:47.963Z,22.40
2019-04-14T19:07:17.768Z,21.17
2019-04-14T19:09:47.922Z,22.77
2019-04-14T19:12:22.321Z,21.62
2019-04-14T19:15:03.043Z,23.38
2019-04-14T19:17:37.312Z,22.05
2019-04-14T19:20:07.115Z,21.37
2019-04-14T19:22:36.926Z,19.75
2019-04-14T19:25:08.485Z,20.55
2019-04-14T19:27:38.310Z,19.90
2019-04-14T19:30:08.128Z,21.80
2019-04-14T19:32:38.120Z,20.57
2019-04-14T19:35:09.598Z,20.62
2019-04-14T19:37:39.923Z,26.17
2019-04-14T19:40:09.917Z,20.85
2019-04-14T19:42:39.798Z,19.98
2019-04-14T19:45:09.671Z,20.17
2019-04-14T19:47:39.654Z,20.88
2019-04-14T19:50:09.466Z,20.37
2019-04-14T19:52:39.277Z,20.40
2019-04-14T19:55:19.922Z,19.00
2019-04-14T19:57:40.646Z,19.92
2019-04-14T20:00:10.867Z,19.62
2019-04-14T20:02:41.193Z,20.35
2019-04-14T20:05:12.879Z,20.68
2019-04-14T20:07:42.867Z,20.30
2019-04-14T20:10:12.885Z,22.35
2019-04-14T20:12:42.799Z,18.95
2019-04-14T20:15:14.351Z,19.87
2019-04-14T20:18:01.006Z,18.82
2019-04-14T20:20:48.917Z,18.15
2019-04-14T20:23:29.118Z,19.87
2019-04-14T20:26:06.598Z,20.32
2019-04-14T20:28:47.372Z,21.73
2019-04-14T20:31:21.696Z,21.40
2019-04-14T20:33:51.584Z,19.17
2019-04-14T20:36:22.511Z,19.00
2019-04-14T20:38:52.295Z,18.35
2019-04-14T20:41:23.085Z,19.05
2019-04-14T20:43:52.942Z,17.37
2019-04-14T20:46:22.745Z,16.05
2019-04-14T20:48:52.569Z,19.87
2019-04-14T20:51:22.514Z,14.98
2019-04-14T20:53:52.957Z,17.87
2019-04-14T20:56:23.044Z,16.45
2019-04-14T20:58:52.942Z,17.45
2019-04-14T21:01:23.583Z,16.12
2019-04-14T21:04:00.961Z,16.25
2019-04-14T21:06:54.306Z,17.95
2019-04-14T21:09:29.498Z,14.58
2019-04-14T21:12:00.931Z,15.80
2019-04-14T21:14:48.684Z,13.98
2019-04-14T21:17:29.073Z,14.55
2019-04-14T21:20:06.199Z,13.88
2019-04-14T21:22:40.477Z,12.05
2019-04-14T21:25:20.698Z,14.38
2019-04-14T21:28:08.506Z,9.83
2019-04-14T21:30:39.942Z,13.60
2019-04-14T21:33:20.855Z,11.83
2019-04-14T21:36:07.657Z,11.08
2019-04-14T21:38:39.119Z,14.70
2019-04-14T21:41:13.278Z,13.72
2019-04-14T21:43:43.220Z,13.25
2019-04-14T21:46:13.164Z,12.68
2019-04-14T21:48:42.959Z,12.15
2019-04-14T21:51:13.089Z,14.03
2019-04-14T21:53:42.977Z,12.50
2019-04-14T21:56:13.881Z,14.30
2019-04-14T21:58:51.154Z,11.65
2019-04-14T22:01:42.297Z,14.50
2019-04-14T22:04:29.998Z,13.65
2019-04-14T22:07:01.906Z,9.68
2019-04-14T22:09:36.078Z,12.23
2019-04-14T22:12:07.618Z,9.45
2019-04-14T22:14:37.494Z,10.10
2019-04-14T22:17:07.817Z,11.22
2019-04-14T22:19:37.728Z,11.20
2019-04-14T22:22:07.603Z,12.20
2019-04-14T22:24:37.789Z,11.50
2019-04-14T22:27:20.511Z,11.50
2019-04-14T22:29:50.404Z,11.03
2019-04-14T22:32:20.205Z,10.10
2019-04-14T22:34:50.026Z,11.05
2019-04-14T22:37:20.376Z,11.73
2019-04-14T22:39:50.291Z,10.35
2019-04-14T22:42:20.161Z,13.48
2019-04-14T22:44:49.973Z,15.63
2019-04-14T22:47:19.798Z,13.70
2019-04-14T22:49:49.971Z,11.28
2019-04-14T22:52:19.780Z,13.10
2019-04-14T22:54:50.087Z,11.93
2019-04-14T22:57:19.878Z,11.18
2019-04-14T22:59:49.686Z,11.57
2019-04-14T23:02:30.450Z,16.55
2019-04-14T23:05:05.253Z,12.03
2019-04-14T23:07:52.531Z,11.83
2019-04-14T23:10:27.259Z,13.58
2019-04-14T23:13:15.196Z,12.28
2019-04-14T23:16:22.330Z,11.95
2019-04-14T23:19:06.211Z,10.28
2019-04-14T23:21:46.791Z,9.58
2019-04-14T23:24:18.331Z,8.28
2019-04-14T23:26:52.678Z,7.45
2019-04-14T23:29:20.221Z,7.27
2019-04-14T23:31:50.137Z,7.87
2019-04-14T23:34:20.181Z,7.67
2019-04-14T23:36:50.342Z,7.92
2019-04-14T23:39:20.209Z,7.00
2019-04-14T23:41:50.105Z,6.17
2019-04-14T23:44:20.220Z,6.92
2019-04-14T23:46:50.039Z,7.10
2019-04-14T23:49:19.812Z,8.35
2019-04-14T23:51:49.726Z,6.65
2019-04-14T23:54:19.599Z,6.55
2019-04-14T23:56:49.492Z,7.75
2019-04-14T23:59:19.370Z,6.70
